sensor_id;sensor_type;location;lat;lon;timestamp;temperature;humidity
80706;DHT22;70229;48.010;7.852;2023-07-08T07:40:40;22.30;72.30
80706;DHT22;70229;48.010;7.852;2023-07-08T07:43:06;22.80;68.40
80706;DHT22;70229;48.010;7.852;2023-07-08T07:45:32;22.90;67.40
80706;DHT22;70229;48.010;7.852;2023-07-08T07:47:57;23.10;67.70
80706;DHT22;70229;48.010;7.852;2023-07-08T07:50:23;23.30;67.70
80706;DHT22;70229;48.010;7.852;2023-07-08T07:52:49;23.70;67.30
80706;DHT22;70229;48.010;7.852;2023-07-08T07:55:14;23.90;64.20
80706;DHT22;70229;48.010;7.852;2023-07-08T07:57:40;23.70;65.20
80706;DHT22;70229;48.010;7.852;2023-07-08T08:00:08;23.90;64.90
80706;DHT22;70229;48.010;7.852;2023-07-08T08:02:35;23.90;64.50
80706;DHT22;70229;48.010;7.852;2023-07-08T08:05:01;23.70;66.30
80706;DHT22;70229;48.010;7.852;2023-07-08T08:07:26;23.70;66.40
80706;DHT22;70229;48.010;7.852;2023-07-08T08:09:52;23.60;67.00
80706;DHT22;70229;48.010;7.852;2023-07-08T09:12:06;24.50;66.50
80706;DHT22;70229;48.010;7.852;2023-07-08T09:14:36;24.80;67.80
80706;DHT22;70229;48.010;7.852;2023-07-08T09:17:24;24.80;63.00
80706;DHT22;70229;48.010;7.852;2023-07-08T09:20:26;24.90;64.50
80706;DHT22;70229;48.010;7.852;2023-07-08T15:02:07;32.50;32.80
80706;DHT22;70229;48.010;7.852;2023-07-08T15:04:38;32.70;33.50
80706;DHT22;70229;48.010;7.852;2023-07-08T15:07:05;32.90;33.40
80706;DHT22;70229;48.010;7.852;2023-07-08T15:09:33;32.90;33.00
80706;DHT22;70229;48.010;7.852;2023-07-08T15:11:59;32.70;33.70
80706;DHT22;70229;48.010;7.852;2023-07-08T15:14:25;32.80;33.40
80706;DHT22;70229;48.010;7.852;2023-07-08T15:16:52;32.70;34.30
80706;DHT22;70229;48.010;7.852;2023-07-08T15:19:19;32.90;34.50
80706;DHT22;70229;48.010;7.852;2023-07-08T15:21:45;33.10;33.60
80706;DHT22;70229;48.010;7.852;2023-07-08T15:24:12;33.00;32.60
80706;DHT22;70229;48.010;7.852;2023-07-08T15:26:44;32.90;33.70
80706;DHT22;70229;48.010;7.852;2023-07-08T15:29:15;32.80;32.10
80706;DHT22;70229;48.010;7.852;2023-07-08T15:31:41;32.80;32.40
80706;DHT22;70229;48.010;7.852;2023-07-08T15:34:15;32.80;33.20
80706;DHT22;70229;48.010;7.852;2023-07-08T15:36:41;32.80;32.30
80706;DHT22;70229;48.010;7.852;2023-07-08T15:39:06;32.80;33.40
80706;DHT22;70229;48.010;7.852;2023-07-08T15:41:32;32.80;32.80
80706;DHT22;70229;48.010;7.852;2023-07-08T15:43:59;33.00;33.10
80706;DHT22;70229;48.010;7.852;2023-07-08T15:46:34;33.10;31.60
80706;DHT22;70229;48.010;7.852;2023-07-08T15:49:01;32.80;31.80
80706;DHT22;70229;48.010;7.852;2023-07-08T15:51:27;33.00;33.60
80706;DHT22;70229;48.010;7.852;2023-07-08T15:53:54;32.80;32.60
80706;DHT22;70229;48.010;7.852;2023-07-08T15:56:20;32.90;33.50
80706;DHT22;70229;48.010;7.852;2023-07-08T15:58:46;33.00;32.60
80706;DHT22;70229;48.010;7.852;2023-07-08T16:01:18;32.80;32.10
80706;DHT22;70229;48.010;7.852;2023-07-08T16:03:45;33.00;32.00
80706;DHT22;70229;48.010;7.852;2023-07-08T16:06:11;33.40;32.20
80706;DHT22;70229;48.010;7.852;2023-07-08T16:08:43;33.60;30.40
80706;DHT22;70229;48.010;7.852;2023-07-08T16:11:30;33.10;32.10
80706;DHT22;70229;48.010;7.852;2023-07-08T16:13:57;33.80;32.70
80706;DHT22;70229;48.010;7.852;2023-07-08T16:18:58;34.40;31.70
80706;DHT22;70229;48.010;7.852;2023-07-08T16:21:23;34.40;32.20
80706;DHT22;70229;48.010;7.852;2023-07-08T16:23:49;34.40;32.00
80706;DHT22;70229;48.010;7.852;2023-07-08T16:26:18;34.40;31.20
80706;DHT22;70229;48.010;7.852;2023-07-08T16:29:01;33.90;31.70
80706;DHT22;70229;48.010;7.852;2023-07-08T16:31:32;33.70;31.80
80706;DHT22;70229;48.010;7.852;2023-07-08T16:33:58;33.60;32.30
80706;DHT22;70229;48.010;7.852;2023-07-08T16:36:28;33.90;33.50
80706;DHT22;70229;48.010;7.852;2023-07-08T17:36:11;34.80;32.60
80706;DHT22;70229;48.010;7.852;2023-07-08T17:38:48;34.60;32.80
80706;DHT22;70229;48.010;7.852;2023-07-08T17:41:23;34.10;32.50
80706;DHT22;70229;48.010;7.852;2023-07-08T17:43:53;33.40;33.40
80706;DHT22;70229;48.010;7.852;2023-07-08T17:46:24;33.00;34.20
80706;DHT22;70229;48.010;7.852;2023-07-08T17:48:55;32.80;34.70
80706;DHT22;70229;48.010;7.852;2023-07-08T17:51:31;32.30;35.50
80706;DHT22;70229;48.010;7.852;2023-07-08T17:54:00;32.10;36.20
80706;DHT22;70229;48.010;7.852;2023-07-08T17:56:41;32.10;36.80
80706;DHT22;70229;48.010;7.852;2023-07-08T17:59:15;32.00;37.00
80706;DHT22;70229;48.010;7.852;2023-07-08T18:01:41;31.90;37.60
80706;DHT22;70229;48.010;7.852;2023-07-08T18:04:07;31.90;37.40
80706;DHT22;70229;48.010;7.852;2023-07-08T18:06:35;31.70;37.30
80706;DHT22;70229;48.010;7.852;2023-07-08T18:09:07;31.60;37.70
80706;DHT22;70229;48.010;7.852;2023-07-08T18:11:37;31.50;37.90
80706;DHT22;70229;48.010;7.852;2023-07-08T18:14:04;31.50;38.00
80706;DHT22;70229;48.010;7.852;2023-07-08T18:16:30;31.30;38.30
80706;DHT22;70229;48.010;7.852;2023-07-08T18:18:57;31.20;38.20
80706;DHT22;70229;48.010;7.852;2023-07-08T18:21:26;31.10;38.50
80706;DHT22;70229;48.010;7.852;2023-07-08T18:23:56;31.10;38.70
80706;DHT22;70229;48.010;7.852;2023-07-08T18:26:29;30.90;39.20
80706;DHT22;70229;48.010;7.852;2023-07-08T18:29:01;30.90;39.40
80706;DHT22;70229;48.010;7.852;2023-07-08T18:31:32;30.80;39.60
80706;DHT22;70229;48.010;7.852;2023-07-08T18:34:00;30.80;39.60
80706;DHT22;70229;48.010;7.852;2023-07-08T18:36:27;30.90;40.00
80706;DHT22;70229;48.010;7.852;2023-07-08T18:38:56;30.70;40.20
80706;DHT22;70229;48.010;7.852;2023-07-08T18:41:29;30.60;40.50
80706;DHT22;70229;48.010;7.852;2023-07-08T18:43:56;30.30;40.90
80706;DHT22;70229;48.010;7.852;2023-07-08T18:46:22;30.40;41.10
80706;DHT22;70229;48.010;7.852;2023-07-08T18:48:51;30.40;41.50
80706;DHT22;70229;48.010;7.852;2023-07-08T18:51:38;30.20;41.50
80706;DHT22;70229;48.010;7.852;2023-07-08T18:54:06;30.10;41.80
80706;DHT22;70229;48.010;7.852;2023-07-08T18:56:35;30.00;43.00
80706;DHT22;70229;48.010;7.852;2023-07-08T18:59:10;29.80;43.60
80706;DHT22;70229;48.010;7.852;2023-07-08T19:01:42;29.70;44.40
80706;DHT22;70229;48.010;7.852;2023-07-08T19:04:24;29.60;45.30
80706;DHT22;70229;48.010;7.852;2023-07-08T19:06:51;29.20;45.90
80706;DHT22;70229;48.010;7.852;2023-07-08T19:09:17;29.20;46.20
80706;DHT22;70229;48.010;7.852;2023-07-08T19:11:46;29.00;46.50
80706;DHT22;70229;48.010;7.852;2023-07-08T19:14:14;29.00;46.70
80706;DHT22;70229;48.010;7.852;2023-07-08T19:16:41;28.90;47.10
80706;DHT22;70229;48.010;7.852;2023-07-08T19:19:06;28.60;47.20
80706;DHT22;70229;48.010;7.852;2023-07-08T19:21:32;28.70;47.50
80706;DHT22;70229;48.010;7.852;2023-07-08T19:24:01;28.60;47.60
80706;DHT22;70229;48.010;7.852;2023-07-08T19:26:29;28.40;48.60
80706;DHT22;70229;48.010;7.852;2023-07-08T19:28:55;28.30;48.40
80706;DHT22;70229;48.010;7.852;2023-07-08T19:31:29;28.20;48.70
80706;DHT22;70229;48.010;7.852;2023-07-08T19:34:01;28.10;48.60
80706;DHT22;70229;48.010;7.852;2023-07-08T19:36:30;27.90;48.50
80706;DHT22;70229;48.010;7.852;2023-07-08T19:38:59;28.10;49.30
80706;DHT22;70229;48.010;7.852;2023-07-08T19:41:29;27.80;49.20
80706;DHT22;70229;48.010;7.852;2023-07-08T19:43:57;27.80;49.40
80706;DHT22;70229;48.010;7.852;2023-07-08T19:46:27;27.70;49.80
80706;DHT22;70229;48.010;7.852;2023-07-08T19:48:57;27.60;50.20
80706;DHT22;70229;48.010;7.852;2023-07-08T19:51:23;27.50;49.90
80706;DHT22;70229;48.010;7.852;2023-07-08T19:53:49;27.40;50.10
80706;DHT22;70229;48.010;7.852;2023-07-08T19:56:20;27.50;50.70
80706;DHT22;70229;48.010;7.852;2023-07-08T19:58:51;27.20;50.30
80706;DHT22;70229;48.010;7.852;2023-07-08T20:01:17;27.00;50.30
80706;DHT22;70229;48.010;7.852;2023-07-08T20:03:52;26.90;50.50
80706;DHT22;70229;48.010;7.852;2023-07-08T20:06:25;26.90;50.60
80706;DHT22;70229;48.010;7.852;2023-07-08T20:08:51;26.90;50.60
80706;DHT22;70229;48.010;7.852;2023-07-08T20:11:20;26.70;51.00
80706;DHT22;70229;48.010;7.852;2023-07-08T20:13:51;26.80;51.60
80706;DHT22;70229;48.010;7.852;2023-07-08T20:16:21;26.60;51.10
80706;DHT22;70229;48.010;7.852;2023-07-08T20:18:48;26.60;50.70
80706;DHT22;70229;48.010;7.852;2023-07-08T20:21:14;26.60;50.90
80706;DHT22;70229;48.010;7.852;2023-07-08T20:23:40;26.60;51.10
80706;DHT22;70229;48.010;7.852;2023-07-08T20:26:30;26.50;51.10
80706;DHT22;70229;48.010;7.852;2023-07-08T20:29:03;26.50;51.10
80706;DHT22;70229;48.010;7.852;2023-07-08T20:31:34;26.40;51.10
80706;DHT22;70229;48.010;7.852;2023-07-08T20:34:11;26.00;51.00
80706;DHT22;70229;48.010;7.852;2023-07-08T20:36:44;26.40;51.50
80706;DHT22;70229;48.010;7.852;2023-07-08T20:39:15;26.50;51.40
80706;DHT22;70229;48.010;7.852;2023-07-08T20:41:42;26.30;51.20
80706;DHT22;70229;48.010;7.852;2023-07-08T20:44:13;26.30;51.40
80706;DHT22;70229;48.010;7.852;2023-07-08T20:46:45;26.30;51.90
80706;DHT22;70229;48.010;7.852;2023-07-08T20:49:11;26.20;51.60
80706;DHT22;70229;48.010;7.852;2023-07-08T20:51:45;26.30;51.60
80706;DHT22;70229;48.010;7.852;2023-07-08T20:54:12;26.20;50.90
80706;DHT22;70229;48.010;7.852;2023-07-08T20:56:41;26.20;50.90
80706;DHT22;70229;48.010;7.852;2023-07-08T20:59:18;26.20;50.80
80706;DHT22;70229;48.010;7.852;2023-07-08T21:01:54;26.10;50.80
80706;DHT22;70229;48.010;7.852;2023-07-08T21:04:20;26.10;50.80
80706;DHT22;70229;48.010;7.852;2023-07-08T21:06:50;26.10;51.00
80706;DHT22;70229;48.010;7.852;2023-07-08T21:09:19;26.00;51.10
80706;DHT22;70229;48.010;7.852;2023-07-08T21:11:59;26.10;51.20
80706;DHT22;70229;48.010;7.852;2023-07-08T21:14:29;26.00;50.80
80706;DHT22;70229;48.010;7.852;2023-07-08T21:16:56;26.00;50.70
80706;DHT22;70229;48.010;7.852;2023-07-08T21:19:22;25.70;50.40
80706;DHT22;70229;48.010;7.852;2023-07-08T21:21:50;26.00;50.40
80706;DHT22;70229;48.010;7.852;2023-07-08T21:24:18;26.00;50.30
80706;DHT22;70229;48.010;7.852;2023-07-08T21:26:49;26.00;50.40
80706;DHT22;70229;48.010;7.852;2023-07-08T21:29:18;26.00;50.40
80706;DHT22;70229;48.010;7.852;2023-07-08T21:31:46;25.70;50.00
80706;DHT22;70229;48.010;7.852;2023-07-08T21:34:15;25.50;50.00
80706;DHT22;70229;48.010;7.852;2023-07-08T21:36:41;25.90;50.10
80706;DHT22;70229;48.010;7.852;2023-07-08T21:39:28;25.90;50.40
80706;DHT22;70229;48.010;7.852;2023-07-08T21:41:57;25.80;50.30
80706;DHT22;70229;48.010;7.852;2023-07-08T23:53:45;25.20;51.20
80706;DHT22;70229;48.010;7.852;2023-07-08T23:56:15;25.10;52.50
80706;DHT22;70229;48.010;7.852;2023-07-08T23:58:42;25.20;51.40
